Time;durP1;ratioP1;P1;durP2;ratioP2;P2;SDS_P1;SDS_P2;PMS_P1;PMS_P2;Temp;Humidity;BMP_temperature;BMP_pressure;BME280_temperature;BME280_humidity;BME280_pressure;Samples;Min_cycle;Max_cycle;Signal;HPM_P1;HPM_P2
2022/06/01 00:01:14;;;;;;;5.35;4.47;;;;;;;21.74;63.93;94792.88;5130591;27;20192;-79
2022/06/01 00:03:43;;;;;;;4.88;4.15;;;;;;;21.67;64.03;94782.47;5109317;27;20196;-78
2022/06/01 00:06:10;;;;;;;7.72;4.93;;;;;;;21.70;63.99;94782.06;5110296;28;20181;-80
2022/06/01 00:08:38;;;;;;;4.70;4.30;;;;;;;21.69;64.05;94782.28;5110297;28;20203;-79
2022/06/01 00:11:06;;;;;;;5.25;4.60;;;;;;;21.67;64.07;94787.66;5110202;28;20193;-80
2022/06/01 00:13:33;;;;;;;6.53;4.38;;;;;;;21.56;64.10;94770.09;5130261;27;20696;-79
2022/06/01 00:16:01;;;;;;;6.85;4.60;;;;;;;21.64;64.40;94785.50;5130831;27;20200;-81
2022/06/01 00:18:28;;;;;;;8.45;5.13;;;;;;;21.60;64.30;94783.50;5130903;27;20184;-80
2022/06/01 00:20:55;;;;;;;7.10;4.90;;;;;;;21.60;64.48;94786.91;5130809;27;20200;-80
2022/06/01 00:23:22;;;;;;;7.00;4.93;;;;;;;21.56;64.45;94785.72;5130724;27;20199;-81
2022/06/01 00:25:51;;;;;;;9.70;4.68;;;;;;;21.54;64.64;94790.31;5137405;27;20199;-81
2022/06/01 00:28:19;;;;;;;7.47;4.78;;;;;;;21.56;64.81;94790.91;5098652;28;20276;-81
2022/06/01 00:30:46;;;;;;;8.00;5.22;;;;;;;21.56;64.75;94792.72;5093488;28;20696;-81
2022/06/01 00:33:14;;;;;;;7.05;4.30;;;;;;;21.54;64.63;94792.91;5134194;27;20223;-81
2022/06/01 00:35:41;;;;;;;8.70;5.40;;;;;;;21.43;64.62;94776.13;5134960;27;20177;-81
2022/06/01 00:38:08;;;;;;;8.27;4.68;;;;;;;21.49;64.71;94790.91;5134590;27;20192;-80
2022/06/01 00:40:35;;;;;;;5.57;4.60;;;;;;;21.49;64.81;94788.31;5132633;27;20191;-80
2022/06/01 00:43:19;;;;;;;6.93;4.68;;;;;;;21.38;64.80;94773.34;5134323;27;20196;-80
2022/06/01 00:45:46;;;;;;;6.43;4.57;;;;;;;21.46;64.90;94788.75;5134719;27;20218;-79
2022/06/01 00:48:15;;;;;;;7.60;5.32;;;;;;;21.45;65.04;94788.91;5134320;27;20180;-81
2022/06/01 00:50:44;;;;;;;6.38;4.72;;;;;;;21.23;65.08;94752.69;5131524;27;20212;-81
2022/06/01 00:53:18;;;;;;;5.57;4.55;;;;;;;21.41;65.06;94783.31;5113344;28;20221;-82
2022/06/01 00:55:47;;;;;;;8.38;4.78;;;;;;;21.35;65.27;94772.94;5113541;27;20675;-81
2022/06/01 00:58:18;;;;;;;5.97;4.75;;;;;;;21.36;65.30;94777.13;5113660;28;20683;-79
2022/06/01 01:00:49;;;;;;;6.13;5.10;;;;;;;21.38;65.33;94783.75;5113492;28;20222;-80
2022/06/01 01:03:18;;;;;;;7.28;5.03;;;;;;;21.37;65.19;94779.50;5113596;28;20642;-79
2022/06/01 01:05:48;;;;;;;7.63;4.20;;;;;;;21.28;65.19;94767.69;5113401;28;20193;-81
2022/06/01 01:08:15;;;;;;;8.27;4.20;;;;;;;21.35;65.18;94780.75;5113336;28;20193;-80
2022/06/01 01:10:42;;;;;;;7.90;4.57;;;;;;;21.33;65.33;94780.94;5125552;27;20184;-78
2022/06/01 01:13:14;;;;;;;5.68;4.15;;;;;;;21.30;65.36;94771.72;5134118;27;20212;-79
2022/06/01 01:15:51;;;;;;;6.85;4.72;;;;;;;21.29;65.29;94764.13;5133831;27;20192;-80
2022/06/01 01:18:22;;;;;;;4.80;4.30;;;;;;;21.28;65.27;94767.69;5133900;27;20212;-80
2022/06/01 01:20:58;;;;;;;7.55;4.60;;;;;;;21.25;65.28;94763.72;5133789;27;20191;-80
2022/06/01 01:23:32;;;;;;;6.50;4.57;;;;;;;21.14;65.31;94746.09;5133588;27;20187;-80
2022/06/01 01:26:00;;;;;;;6.03;4.63;;;;;;;21.22;65.29;94756.31;5133419;27;20192;-80
2022/06/01 01:28:28;;;;;;;7.20;3.80;;;;;;;21.20;65.27;94755.72;5133556;27;20188;-79
2022/06/01 01:31:02;;;;;;;5.82;4.15;;;;;;;21.10;65.37;94736.31;5115662;27;20189;-80
2022/06/01 01:33:30;;;;;;;8.13;3.97;;;;;;;21.14;65.46;94747.91;5112667;28;20212;-81
2022/06/01 01:36:01;;;;;;;11.45;4.80;;;;;;;21.14;65.46;94748.72;5112221;28;20779;-80
2022/06/01 01:38:36;;;;;;;8.07;4.13;;;;;;;21.13;65.65;94739.31;5113946;27;20182;-79
2022/06/01 01:41:12;;;;;;;6.03;4.23;;;;;;;21.04;65.74;94724.91;5131294;27;20183;-79
2022/06/01 01:43:45;;;;;;;4.40;4.00;;;;;;;21.11;65.65;94741.28;5133109;27;20637;-79
2022/06/01 01:46:12;;;;;;;6.97;4.60;;;;;;;21.08;65.71;94738.31;5133178;27;20188;-80
2022/06/01 01:48:39;;;;;;;6.47;4.00;;;;;;;21.05;65.63;94731.72;5131098;27;20234;-81
2022/06/01 01:51:06;;;;;;;6.77;4.30;;;;;;;21.05;65.66;94735.09;5112363;28;20196;-79
2022/06/01 01:53:34;;;;;;;6.10;4.13;;;;;;;21.04;65.65;94738.72;5123919;27;20320;-80
2022/06/01 01:56:12;;;;;;;5.23;4.40;;;;;;;21.00;65.76;94737.53;5133141;27;20192;-79
2022/06/01 01:58:50;;;;;;;5.30;4.37;;;;;;;20.95;65.82;94736.53;5133226;27;20760;-80
2022/06/01 02:01:24;;;;;;;6.47;4.33;;;;;;;20.96;65.80;94743.31;5132783;27;20614;-81
2022/06/01 02:03:56;;;;;;;6.77;4.77;;;;;;;20.99;65.79;94751.53;5132804;27;20200;-79
2022/06/01 02:06:28;;;;;;;10.50;4.53;;;;;;;20.97;65.96;94753.50;5132636;27;20199;-79
2022/06/01 02:08:58;;;;;;;7.88;3.97;;;;;;;20.96;65.94;94743.31;5116336;27;20224;-80
2022/06/01 02:14:20;;;;;;;5.17;4.40;;;;;;;20.89;65.91;94740.72;5112430;28;20271;-81
2022/06/01 02:16:54;;;;;;;7.63;4.47;;;;;;;20.89;66.12;94752.91;5111723;28;20314;-81
2022/06/01 02:19:25;;;;;;;8.20;4.50;;;;;;;20.86;66.13;94745.53;5112429;28;20200;-79
2022/06/01 02:21:54;;;;;;;7.23;4.50;;;;;;;20.75;66.15;94732.13;5113017;27;20288;-79
2022/06/01 02:24:21;;;;;;;8.13;4.90;;;;;;;20.87;66.32;94750.53;5112391;28;20213;-80
2022/06/01 02:26:50;;;;;;;4.87;4.00;;;;;;;20.82;66.11;94744.31;5113033;27;20216;-79
2022/06/01 02:29:21;;;;;;;9.80;4.93;;;;;;;20.80;66.10;94749.72;5132506;27;20216;-80
2022/06/01 02:31:48;;;;;;;13.47;4.87;;;;;;;20.83;66.08;94757.13;5132050;27;20191;-80
2022/06/01 02:34:16;;;;;;;8.40;4.70;;;;;;;20.80;66.12;94763.50;5132732;27;20311;-80
2022/06/01 02:36:44;;;;;;;4.60;4.20;;;;;;;20.79;66.23;94763.72;5119261;27;20683;-79
2022/06/01 02:39:16;;;;;;;7.47;5.17;;;;;;;20.77;66.19;94769.13;5112135;28;20195;-80
2022/06/01 02:44:29;;;;;;;4.93;4.47;;;;;;;20.63;66.18;94754.50;5111505;28;20199;-80
2022/06/01 02:46:56;;;;;;;8.70;4.73;;;;;;;20.72;66.06;94768.88;5111727;27;20196;-80
2022/06/01 02:49:23;;;;;;;6.27;4.63;;;;;;;20.74;66.16;94773.91;5111589;28;20282;-79
2022/06/01 02:51:49;;;;;;;5.00;4.47;;;;;;;20.74;66.24;94776.50;5111111;28;20196;-80
2022/06/01 02:54:16;;;;;;;9.77;4.43;;;;;;;20.61;66.07;94747.91;5111525;28;20195;-80
2022/06/01 02:56:43;;;;;;;6.53;4.67;;;;;;;20.71;66.23;94764.69;5111138;28;20191;-79
2022/06/01 02:59:10;;;;;;;5.67;4.70;;;;;;;20.72;66.13;94765.50;5111469;28;20210;-80
2022/06/01 03:01:38;;;;;;;4.87;4.40;;;;;;;20.67;66.23;94760.09;5111131;28;20196;-80
2022/06/01 03:04:06;;;;;;;5.57;4.47;;;;;;;20.72;66.08;94768.88;5111687;28;20200;-80
2022/06/01 03:06:32;;;;;;;7.80;4.23;;;;;;;20.71;66.28;94763.91;5125787;27;20188;-79
2022/06/01 03:09:00;;;;;;;6.73;4.60;;;;;;;20.74;66.35;94776.50;5131623;27;20192;-80
2022/06/01 03:11:26;;;;;;;5.27;4.70;;;;;;;20.75;66.28;94776.28;5131177;27;20253;-81
2022/06/01 03:13:53;;;;;;;7.17;4.13;;;;;;;20.75;66.24;94781.50;5131680;27;20208;-79
2022/06/01 03:16:20;;;;;;;9.43;4.70;;;;;;;20.76;66.58;94784.88;5131625;27;20189;-81
2022/06/01 03:18:48;;;;;;;5.50;4.47;;;;;;;20.77;66.31;94779.50;5131222;27;20185;-80
2022/06/01 03:21:15;;;;;;;6.97;4.70;;;;;;;20.78;66.28;94781.09;5130113;27;20188;-81
2022/06/01 03:23:42;;;;;;;4.07;3.70;;;;;;;20.72;66.20;94778.50;5130801;27;20291;-79
2022/06/01 03:26:09;;;;;;;6.37;4.60;;;;;;;20.82;66.28;94791.13;5116024;27;20185;-80
2022/06/01 03:28:36;;;;;;;10.80;5.10;;;;;;;20.84;66.76;94786.50;5110761;28;20197;-80
2022/06/01 03:31:03;;;;;;;7.17;6.17;;;;;;;20.85;66.70;94793.31;5110929;28;20189;-79
2022/06/01 03:33:29;;;;;;;11.50;6.73;;;;;;;20.86;66.60;94793.13;5110406;28;20220;-80
2022/06/01 03:35:58;;;;;;;6.43;5.82;;;;;;;20.84;66.63;94787.31;5110965;28;20189;-80
2022/06/01 03:38:24;;;;;;;9.50;6.53;;;;;;;20.91;66.58;94795.13;5110630;28;20196;-81
2022/06/01 03:40:51;;;;;;;7.63;6.57;;;;;;;20.91;66.69;94790.72;5118981;28;20189;-80
2022/06/01 03:43:19;;;;;;;7.47;6.67;;;;;;;20.97;66.64;94791.72;5120375;28;20181;-78
2022/06/01 03:45:58;;;;;;;7.77;6.90;;;;;;;20.94;66.81;94779.09;5135208;27;20279;-80
2022/06/01 03:48:32;;;;;;;8.18;7.43;;;;;;;21.05;66.60;94799.31;5131210;27;20226;-80
2022/06/01 03:51:00;;;;;;;10.57;8.20;;;;;;;21.11;66.80;94802.91;5135134;27;20249;-80
2022/06/01 03:53:29;;;;;;;10.67;8.03;;;;;;;21.00;66.58;94776.53;5131814;27;20665;-81
2022/06/01 03:55:56;;;;;;;13.27;8.17;;;;;;;21.17;66.90;94800.31;5131455;27;20204;-80
2022/06/01 03:58:25;;;;;;;9.93;8.93;;;;;;;21.21;66.65;94793.72;5131066;27;20180;-80
2022/06/01 04:00:52;;;;;;;13.82;8.63;;;;;;;21.20;66.54;94780.91;5130751;27;20202;-80
2022/06/01 04:03:19;;;;;;;14.70;10.27;;;;;;;21.28;66.51;94780.69;5131306;27;20551;-79
2022/06/01 04:05:46;;;;;;;11.80;9.63;;;;;;;21.33;66.50;94790.53;5128992;27;20653;-80
2022/06/01 04:08:14;;;;;;;11.30;8.88;;;;;;;21.45;66.30;94797.53;5131101;27;20184;-81
2022/06/01 04:10:44;;;;;;;10.85;8.80;;;;;;;21.53;66.07;94799.91;5131222;27;20192;-80
2022/06/01 04:13:11;;;;;;;17.90;10.18;;;;;;;21.53;66.12;94788.72;5131153;27;20215;-80
2022/06/01 04:15:38;;;;;;;11.80;9.65;;;;;;;21.64;66.15;94801.13;5130671;27;20184;-81
2022/06/01 04:18:05;;;;;;;12.23;9.68;;;;;;;21.66;66.00;94798.31;5130990;27;20661;-80
2022/06/01 04:20:32;;;;;;;15.02;9.48;;;;;;;21.75;65.73;94797.88;5126886;27;20203;-79
2022/06/01 04:23:00;;;;;;;13.27;8.60;;;;;;;21.75;65.47;94779.66;5129228;27;20188;-80
2022/06/01 04:25:30;;;;;;;12.52;8.60;;;;;;;21.93;65.01;94799.81;5130914;27;20189;-81
2022/06/01 04:27:57;;;;;;;15.55;9.77;;;;;;;22.10;64.49;94802.78;5131133;27;20200;-82
2022/06/01 04:30:24;;;;;;;10.40;8.63;;;;;;;22.11;64.26;94786.16;5127271;27;20192;-82
2022/06/01 04:32:53;;;;;;;12.95;8.07;;;;;;;22.36;63.97;94796.69;5110397;28;20249;-79
2022/06/01 04:35:21;;;;;;;10.43;7.97;;;;;;;22.54;63.58;94803.84;5110794;28;20212;-81
2022/06/01 04:37:48;;;;;;;11.77;8.00;;;;;;;22.72;63.26;94800.50;5110635;28;20189;-81
2022/06/01 04:40:17;;;;;;;9.95;7.90;;;;;;;22.89;63.21;94809.44;5111323;28;20193;-81
2022/06/01 04:42:45;;;;;;;8.05;7.25;;;;;;;23.07;63.37;94813.16;5118998;28;20201;-81
2022/06/01 04:45:15;;;;;;;9.50;7.35;;;;;;;23.16;63.52;94801.44;5127806;27;20200;-83
2022/06/01 04:47:42;;;;;;;7.47;6.78;;;;;;;23.39;64.35;94816.50;5111728;28;20571;-82
2022/06/01 04:50:10;;;;;;;8.75;5.57;;;;;;;23.36;69.32;94773.38;5111166;28;20227;-82
2022/06/01 04:52:37;;;;;;;6.07;5.47;;;;;;;23.78;72.07;94810.94;5112734;28;20189;-81
2022/06/01 04:55:07;;;;;;;17.52;11.75;;;;;;;24.07;74.43;94819.06;5112295;28;20211;-81
2022/06/01 04:57:34;;;;;;;30.30;17.98;;;;;;;24.25;76.24;94803.38;5110998;28;20190;-80
2022/06/01 05:00:02;;;;;;;42.90;29.02;;;;;;;24.61;78.17;94811.41;5111236;28;20614;-80
2022/06/01 05:02:29;;;;;;;51.20;24.35;;;;;;;24.71;76.48;94794.16;5118791;28;20565;-82
2022/06/01 05:04:56;;;;;;;34.70;20.55;;;;;;;25.08;73.91;94801.91;5130560;27;20224;-83
2022/06/01 05:07:23;;;;;;;31.17;14.80;;;;;;;25.42;70.86;94825.72;5130977;27;20580;-83
2022/06/01 05:09:50;;;;;;;23.60;13.82;;;;;;;25.63;69.28;94832.25;5130938;27;20177;-83
2022/06/01 05:12:17;;;;;;;27.85;13.55;;;;;;;25.84;69.16;94836.13;5134155;27;20188;-87
2022/06/01 05:14:43;;;;;;;22.05;11.63;;;;;;;26.02;67.50;94831.56;5134688;27;20219;-84
2022/06/01 05:17:12;;;;;;;13.55;9.10;;;;;;;26.36;65.84;94833.53;5132211;27;20189;-87
2022/06/01 05:19:38;;;;;;;13.77;8.27;;;;;;;26.62;62.28;94840.09;5134046;27;20192;-84
2022/06/01 05:22:05;;;;;;;9.50;7.45;;;;;;;26.79;61.04;94817.31;5133455;27;20183;-80
2022/06/01 05:24:32;;;;;;;12.38;6.47;;;;;;;27.29;60.48;94842.91;5131078;27;20195;-82
2022/06/01 05:26:59;;;;;;;7.47;6.45;;;;;;;27.69;60.58;94839.28;5130501;27;20195;-80
2022/06/01 05:29:27;;;;;;;11.95;6.47;;;;;;;28.20;59.91;94837.38;5133755;27;20562;-83
2022/06/01 05:31:54;;;;;;;11.68;6.03;;;;;;;28.74;59.06;94846.19;5133869;27;20189;-80
2022/06/01 05:34:22;;;;;;;8.75;6.05;;;;;;;29.33;57.66;94845.47;5134241;27;20216;-83
2022/06/01 05:36:49;;;;;;;11.20;5.50;;;;;;;29.93;56.08;94835.63;5133705;27;20177;-82
2022/06/01 05:39:17;;;;;;;10.10;5.28;;;;;;;30.46;54.69;94821.38;5133810;27;20181;-80
2022/06/01 05:41:44;;;;;;;8.57;5.80;;;;;;;31.12;53.18;94822.59;5133532;27;20191;-80
2022/06/01 05:44:10;;;;;;;9.68;5.63;;;;;;;31.79;51.99;94832.13;5133494;27;20658;-82
2022/06/01 05:46:37;;;;;;;7.75;5.32;;;;;;;32.43;50.04;94828.81;5133344;27;20188;-79
2022/06/01 05:49:05;;;;;;;8.45;5.35;;;;;;;33.03;48.54;94825.31;5132916;27;20224;-80
2022/06/01 05:51:35;;;;;;;8.52;4.85;;;;;;;33.43;47.01;94792.41;5133643;27;20188;-82
2022/06/01 05:54:02;;;;;;;8.70;4.80;;;;;;;34.28;45.61;94828.19;5132944;27;20323;-79
2022/06/01 05:56:29;;;;;;;10.82;4.38;;;;;;;34.87;44.58;94832.25;5133308;27;20191;-80
2022/06/01 05:58:56;;;;;;;18.13;5.07;;;;;;;35.42;43.37;94827.22;5133066;27;20191;-81
2022/06/01 06:01:23;;;;;;;10.00;4.95;;;;;;;35.99;42.32;94830.53;5133240;27;20193;-81
2022/06/01 06:03:50;;;;;;;8.25;4.80;;;;;;;36.49;41.08;94825.31;5132758;27;20192;-81
2022/06/01 06:06:17;;;;;;;6.32;4.32;;;;;;;36.98;40.38;94821.09;5133105;27;20588;-79
2022/06/01 06:08:49;;;;;;;12.10;4.30;;;;;;;37.54;39.33;94835.78;5133138;27;20664;-79
2022/06/01 06:11:18;;;;;;;13.18;4.47;;;;;;;38.01;38.49;94832.78;5133893;27;20252;-80
2022/06/01 06:13:45;;;;;;;9.88;4.68;;;;;;;38.49;37.46;94835.47;5133277;27;20227;-79
2022/06/01 06:16:13;;;;;;;5.95;4.35;;;;;;;38.91;36.58;94830.53;5133426;27;20185;-78
2022/06/01 06:18:40;;;;;;;10.32;4.57;;;;;;;39.21;36.07;94819.97;5134586;27;20199;-80
2022/06/01 06:21:07;;;;;;;6.55;4.00;;;;;;;39.72;35.39;94832.53;5135247;27;20238;-78
2022/06/01 06:23:34;;;;;;;9.57;5.03;;;;;;;40.10;34.56;94834.50;5136620;27;20641;-79
2022/06/01 06:26:03;;;;;;;7.10;5.53;;;;;;;40.45;34.33;94826.28;5139133;27;20193;-79
2022/06/01 06:28:31;;;;;;;7.40;4.20;;;;;;;40.77;33.67;94835.59;5137190;27;20213;-82
2022/06/01 06:30:58;;;;;;;4.85;4.10;;;;;;;41.09;33.37;94834.09;5119172;27;20189;-82
2022/06/01 06:33:25;;;;;;;8.38;4.43;;;;;;;41.36;32.82;94828.16;5132863;27;20216;-80
2022/06/01 06:36:01;;;;;;;6.85;4.35;;;;;;;41.69;32.39;94832.78;5107229;27;20581;-76
2022/06/01 06:38:29;;;;;;;7.70;4.15;;;;;;;41.98;32.13;94831.84;5098822;27;20212;-83
2022/06/01 06:40:57;;;;;;;11.57;4.93;;;;;;;42.26;31.30;94831.22;5110999;28;20617;-80
2022/06/01 06:43:28;;;;;;;8.07;5.43;;;;;;;42.45;31.01;94815.31;5108874;28;20193;-82
2022/06/01 06:45:58;;;;;;;8.15;4.50;;;;;;;42.76;30.48;94824.72;5109852;27;20204;-80
2022/06/01 06:48:25;;;;;;;8.38;5.10;;;;;;;42.98;30.45;94816.13;5110170;28;20321;-82
2022/06/01 06:50:52;;;;;;;9.27;5.22;;;;;;;43.20;29.79;94817.53;5109807;28;20634;-76
2022/06/01 06:53:19;;;;;;;9.02;5.03;;;;;;;43.39;29.54;94818.78;5112931;27;20192;-80
2022/06/01 06:55:46;;;;;;;9.57;5.07;;;;;;;43.58;29.53;94818.94;5111121;27;20184;-82
2022/06/01 06:58:13;;;;;;;13.38;5.22;;;;;;;43.75;29.21;94810.53;5112004;28;20196;-81
2022/06/01 07:00:42;;;;;;;8.32;5.28;;;;;;;43.91;28.90;94812.47;5110102;27;20187;-80
2022/06/01 07:03:09;;;;;;;7.45;5.55;;;;;;;44.08;28.52;94815.59;5110566;28;20185;-81
2022/06/01 07:08:22;;;;;;;7.65;5.63;;;;;;;44.34;27.89;94808.13;5068047;28;20380;-82
2022/06/01 07:10:49;;;;;;;9.38;6.20;;;;;;;44.49;27.49;94815.41;5067603;28;20375;-83
2022/06/01 07:13:16;;;;;;;11.27;5.97;;;;;;;44.53;27.41;94794.69;5070292;28;20190;-81
2022/06/01 07:15:44;;;;;;;11.32;6.35;;;;;;;44.72;27.86;94804.75;5070698;28;20685;-79
2022/06/01 07:18:11;;;;;;;8.50;5.65;;;;;;;44.83;27.08;94805.00;5067542;28;20590;-79
2022/06/01 07:20:38;;;;;;;12.13;5.28;;;;;;;44.92;27.08;94809.03;5068481;28;20193;-76
2022/06/01 07:23:06;;;;;;;9.45;5.75;;;;;;;45.01;26.83;94812.31;5067520;28;20200;-79
2022/06/01 07:25:36;;;;;;;7.78;5.57;;;;;;;44.96;26.90;94795.63;5067336;28;20240;-79
2022/06/01 07:28:03;;;;;;;8.30;5.68;;;;;;;45.16;26.87;94815.31;5067251;28;20201;-78
2022/06/01 07:30:30;;;;;;;7.90;5.45;;;;;;;45.21;26.13;94817.72;5067291;28;20185;-78
2022/06/01 07:32:58;;;;;;;14.60;5.65;;;;;;;45.27;26.25;94806.28;5065835;28;20820;-78
2022/06/01 07:35:25;;;;;;;10.07;5.43;;;;;;;45.20;25.95;94799.97;5064852;28;20232;-79
2022/06/01 07:43:35;;;;;;;11.20;6.32;;;;;;;45.35;26.00;94807.22;5029970;28;20190;-79
2022/06/01 07:46:02;;;;;;;9.00;6.07;;;;;;;45.35;25.75;94804.50;5041824;28;20277;-78
2022/06/01 07:48:30;;;;;;;7.97;6.07;;;;;;;45.33;26.23;94798.69;5046510;28;20218;-78
2022/06/01 07:50:58;;;;;;;11.52;6.75;;;;;;;45.33;25.73;94800.59;5045026;28;20833;-81
2022/06/01 07:53:24;;;;;;;10.20;6.68;;;;;;;45.31;25.66;94806.38;5044208;28;20558;-77
2022/06/01 07:55:51;;;;;;;9.93;6.75;;;;;;;45.25;25.55;94802.38;5046545;28;20194;-79
2022/06/01 07:58:18;;;;;;;12.25;6.75;;;;;;;45.24;25.61;94806.22;5046167;28;20705;-79
2022/06/01 08:00:47;;;;;;;10.82;6.95;;;;;;;45.20;26.15;94808.84;5046617;28;20206;-81
2022/06/01 08:03:15;;;;;;;10.32;6.60;;;;;;;45.16;26.15;94807.22;5046388;28;20194;-79
2022/06/01 08:05:46;;;;;;;13.18;6.22;;;;;;;45.11;25.71;94808.28;5047723;28;20198;-79
2022/06/01 08:08:13;;;;;;;14.93;6.65;;;;;;;45.04;25.53;94808.16;5047655;28;20210;-78
2022/06/01 08:10:40;;;;;;;10.35;5.97;;;;;;;44.93;25.64;94790.94;5048113;28;20197;-76
2022/06/01 08:13:09;;;;;;;8.10;5.22;;;;;;;44.90;26.00;94797.03;5107173;28;20188;-77
2022/06/01 08:15:40;;;;;;;10.85;5.45;;;;;;;44.82;25.78;94804.19;5109030;28;20228;-77
2022/06/01 08:18:08;;;;;;;6.78;5.47;;;;;;;44.73;25.92;94803.63;5110868;28;20181;-78
2022/06/01 08:20:36;;;;;;;8.00;5.38;;;;;;;44.63;25.79;94807.66;5109312;28;20204;-77
2022/06/01 08:23:06;;;;;;;7.43;5.90;;;;;;;44.50;26.20;94801.56;5108652;28;20201;-79
2022/06/01 08:25:34;;;;;;;8.23;5.72;;;;;;;44.41;25.86;94802.91;5109300;28;20188;-79
2022/06/01 08:28:01;;;;;;;11.25;5.57;;;;;;;44.29;26.16;94807.25;5108842;28;20182;-78
2022/06/01 08:30:31;;;;;;;7.20;4.90;;;;;;;44.17;26.28;94807.34;5109137;28;20192;-78
2022/06/01 08:32:58;;;;;;;8.70;4.80;;;;;;;44.06;26.29;94799.00;5108929;28;20192;-78
2022/06/01 08:35:28;;;;;;;5.28;4.78;;;;;;;43.95;25.85;94803.34;5109596;28;20311;-79
2022/06/01 08:37:56;;;;;;;6.40;5.43;;;;;;;43.85;25.85;94800.41;5109155;28;20216;-78
2022/06/01 08:40:29;;;;;;;8.93;5.20;;;;;;;43.72;26.47;94805.06;5109396;28;20184;-79
2022/06/01 08:43:00;;;;;;;6.75;4.68;;;;;;;43.58;26.30;94800.88;5106893;28;20177;-78
2022/06/01 08:45:28;;;;;;;5.35;4.40;;;;;;;43.34;26.28;94784.81;5112768;27;20209;-79
2022/06/01 08:47:56;;;;;;;5.40;4.30;;;;;;;43.28;26.09;94800.44;5112692;28;20787;-80
2022/06/01 08:50:28;;;;;;;7.78;4.78;;;;;;;43.13;26.63;94792.31;5112183;28;20184;-78
2022/06/01 08:52:59;;;;;;;6.32;4.78;;;;;;;42.93;26.76;94791.34;5113030;27;20234;-79
2022/06/01 08:55:35;;;;;;;8.57;5.07;;;;;;;42.79;26.68;94794.41;5113532;27;20778;-79
2022/06/01 08:58:09;;;;;;;5.88;4.90;;;;;;;42.59;27.00;94796.91;5109391;28;20196;-79
2022/06/01 09:00:43;;;;;;;8.27;5.13;;;;;;;42.45;26.97;94793.78;5111360;27;20621;-77
2022/06/01 09:03:16;;;;;;;8.10;4.85;;;;;;;42.22;27.16;94784.63;5110417;28;20278;-80
2022/06/01 09:05:45;;;;;;;9.10;4.85;;;;;;;42.12;27.03;94801.19;5110593;28;20200;-78
2022/06/01 09:08:23;;;;;;;7.43;4.65;;;;;;;41.91;27.30;94790.53;5110762;28;20216;-78
2022/06/01 09:11:02;;;;;;;9.00;4.65;;;;;;;41.78;27.38;94797.75;5113720;27;20276;-78
2022/06/01 09:13:36;;;;;;;7.28;5.20;;;;;;;41.59;27.27;94792.91;5110858;27;20197;-77
2022/06/01 09:16:09;;;;;;;7.63;5.63;;;;;;;41.42;27.70;94787.72;5109558;28;20634;-81
2022/06/01 09:18:41;;;;;;;8.35;5.40;;;;;;;41.20;27.91;94778.13;5110688;28;20223;-80
2022/06/01 09:24:08;;;;;;;8.15;4.55;;;;;;;40.92;28.00;94789.38;5112258;27;20585;-80
2022/06/01 09:26:52;;;;;;;6.63;4.72;;;;;;;40.73;28.34;94786.38;5110509;28;20200;-80
2022/06/01 09:29:21;;;;;;;9.10;4.63;;;;;;;40.50;28.52;94770.56;5111374;27;20184;-81
2022/06/01 09:31:49;;;;;;;7.50;4.50;;;;;;;40.39;28.42;94780.09;5109332;27;20651;-79
2022/06/01 09:34:23;;;;;;;8.27;5.35;;;;;;;40.20;28.60;94782.41;5109653;28;20247;-83
2022/06/01 09:37:02;;;;;;;8.85;4.63;;;;;;;40.02;28.67;94779.00;5107307;28;20197;-82
2022/06/01 09:39:29;;;;;;;6.18;4.22;;;;;;;39.83;28.74;94774.84;5108316;28;20193;-81
2022/06/01 09:42:13;;;;;;;8.25;5.00;;;;;;;39.63;28.72;94768.25;5108775;28;20205;-80
2022/06/01 09:44:45;;;;;;;8.07;4.60;;;;;;;39.49;28.73;94775.72;5109596;27;20276;-83
2022/06/01 09:47:28;;;;;;;10.75;4.40;;;;;;;39.32;29.04;94765.81;5108854;27;20669;-81
2022/06/01 09:49:57;;;;;;;7.47;4.60;;;;;;;39.13;28.99;94765.38;5106464;28;20252;-79
2022/06/01 09:52:30;;;;;;;7.82;4.07;;;;;;;39.03;29.07;94766.47;5111508;27;20529;-78
2022/06/01 09:55:07;;;;;;;7.45;4.28;;;;;;;38.88;28.93;94765.06;5111272;28;20212;-78
2022/06/01 09:57:38;;;;;;;6.45;3.78;;;;;;;38.74;29.09;94760.97;5111063;28;20325;-79
2022/06/01 10:06:12;;;;;;;5.45;3.90;;;;;;;38.19;29.43;94753.47;5111698;27;20189;-83
2022/06/01 10:08:42;;;;;;;4.63;3.75;;;;;;;37.98;29.42;94742.56;5113350;27;20199;-83
2022/06/01 10:11:28;;;;;;;7.75;3.78;;;;;;;37.85;29.43;94747.72;5112550;27;20201;-84
2022/06/01 10:14:05;;;;;;;4.75;3.60;;;;;;;37.67;29.46;94741.50;5110383;28;20208;-83
2022/06/01 10:16:43;;;;;;;4.47;3.40;;;;;;;37.61;29.68;94756.09;5110811;28;20201;-83
2022/06/01 10:19:15;;;;;;;10.20;4.30;;;;;;;37.50;29.51;94760.09;5111344;28;20211;-79
2022/06/01 10:21:53;;;;;;;6.35;3.60;;;;;;;37.36;29.75;94757.50;5111185;27;20280;-82
2022/06/01 10:24:27;;;;;;;9.20;4.18;;;;;;;37.26;29.67;94748.94;5110205;28;20649;-81
2022/06/01 10:26:58;;;;;;;5.68;3.67;;;;;;;37.15;29.68;94749.19;5111094;28;20185;-80
2022/06/01 10:29:32;;;;;;;4.90;4.05;;;;;;;37.02;29.80;94749.28;5112965;27;20281;-84
2022/06/01 10:32:05;;;;;;;5.65;3.63;;;;;;;36.96;29.88;94747.81;5112338;27;20193;-83
2022/06/01 10:34:38;;;;;;;6.60;3.78;;;;;;;36.87;29.94;94755.72;5111559;27;20217;-83
2022/06/01 10:37:13;;;;;;;6.68;3.58;;;;;;;36.76;30.05;94752.50;5111682;27;20189;-82
2022/06/01 10:39:45;;;;;;;4.32;3.65;;;;;;;36.66;30.04;94748.19;5109417;28;20592;-80
2022/06/01 10:42:18;;;;;;;6.30;3.80;;;;;;;36.56;30.23;94747.63;5112035;28;20205;-83
2022/06/01 10:44:55;;;;;;;6.45;3.13;;;;;;;36.46;30.26;94745.19;5111253;28;20189;-82
2022/06/01 10:47:28;;;;;;;6.32;3.60;;;;;;;36.25;30.27;94720.84;5108047;28;20269;-84
2022/06/01 10:50:01;;;;;;;5.57;3.63;;;;;;;36.27;30.43;94731.97;5110488;27;20228;-81
2022/06/01 10:52:33;;;;;;;7.25;3.53;;;;;;;36.16;30.29;94726.06;5110518;28;20242;-83
2022/06/01 10:55:12;;;;;;;5.93;3.40;;;;;;;36.07;30.21;94728.66;5107299;28;20220;-82
2022/06/01 10:57:42;;;;;;;6.45;3.60;;;;;;;36.04;30.35;94731.13;5110422;28;20189;-81
2022/06/01 11:00:14;;;;;;;6.25;3.03;;;;;;;35.94;30.48;94724.09;5112017;27;20189;-83
2022/06/01 11:03:16;;;;;;;6.78;4.10;;;;;;;35.71;30.52;94706.44;5110460;28;20196;-84
2022/06/01 11:05:52;;;;;;;4.35;3.22;;;;;;;35.72;30.43;94724.78;5110984;27;20185;-83
2022/06/01 11:08:33;;;;;;;6.75;3.03;;;;;;;35.64;30.45;94725.47;5108862;28;20193;-79
2022/06/01 11:11:07;;;;;;;6.78;3.42;;;;;;;35.53;30.66;94722.22;5109715;28;20577;-83
2022/06/01 11:13:59;;;;;;;4.88;3.55;;;;;;;35.43;30.54;94717.06;5110068;28;20665;-86
2022/06/01 11:16:39;;;;;;;7.18;3.22;;;;;;;35.35;30.80;94709.75;5108261;28;20228;-87
2022/06/01 11:19:24;;;;;;;4.47;2.70;;;;;;;35.26;30.65;94712.28;5110074;27;20181;-81
2022/06/01 11:22:00;;;;;;;6.45;3.10;;;;;;;35.14;30.95;94704.78;5110005;28;20197;-82
2022/06/01 11:24:41;;;;;;;5.82;3.00;;;;;;;35.06;30.58;94705.47;5110500;27;20188;-82
2022/06/01 11:27:29;;;;;;;3.85;3.13;;;;;;;34.97;30.75;94701.06;5109000;28;20215;-79
2022/06/01 11:30:06;;;;;;;5.15;3.40;;;;;;;34.95;30.58;94704.03;5107473;28;20646;-78
2022/06/01 11:32:41;;;;;;;5.82;3.08;;;;;;;34.89;30.65;94703.31;5116533;27;20200;-84
2022/06/01 11:35:17;;;;;;;8.57;2.83;;;;;;;34.79;30.87;94702.69;5112677;28;20200;-81
2022/06/01 11:37:50;;;;;;;4.10;2.85;;;;;;;34.59;30.89;94677.25;5111279;28;20188;-82
2022/06/01 11:40:31;;;;;;;6.95;3.33;;;;;;;34.66;30.63;94697.03;5109886;28;20193;-78
2022/06/01 11:43:05;;;;;;;4.65;2.70;;;;;;;34.58;30.84;94695.00;5111054;28;20246;-83
2022/06/01 11:45:35;;;;;;;4.13;2.70;;;;;;;34.50;30.89;94693.03;5109631;28;20200;-81
2022/06/01 11:48:08;;;;;;;2.95;2.55;;;;;;;34.49;30.87;94698.63;5109710;28;20558;-81
2022/06/01 11:50:57;;;;;;;7.30;2.97;;;;;;;34.42;30.94;94691.78;5108499;28;20671;-81
2022/06/01 11:53:33;;;;;;;5.88;3.05;;;;;;;34.39;30.70;94686.25;5109674;27;20189;-81
2022/06/01 11:56:16;;;;;;;6.65;2.80;;;;;;;34.13;30.50;94648.66;5108674;28;20207;-80
2022/06/01 11:58:57;;;;;;;3.70;2.97;;;;;;;34.34;30.65;94681.03;5109117;28;20195;-81
2022/06/01 12:01:45;;;;;;;4.28;2.75;;;;;;;34.28;30.85;94677.63;5109786;28;20329;-79
2022/06/01 12:04:21;;;;;;;6.07;2.40;;;;;;;34.21;30.53;94677.22;5109777;28;20185;-80
2022/06/01 12:06:56;;;;;;;5.20;2.63;;;;;;;34.11;30.66;94672.03;5113331;27;20189;-80
2022/06/01 12:09:47;;;;;;;5.90;2.38;;;;;;;34.09;30.64;94667.00;5109569;28;20838;-82